createdAt,value
2023-03-30T00:03:35.645Z,16.50
2023-03-30T00:06:05.698Z,13.20
2023-03-30T00:08:33.976Z,16.10
2023-03-30T00:11:07.954Z,12.70
2023-03-30T00:13:37.942Z,14.20
2023-03-30T00:16:09.425Z,16.60
2023-03-30T00:18:38.330Z,22.40
2023-03-30T00:21:08.588Z,12.90
2023-03-30T00:23:38.190Z,19.40
2023-03-30T00:26:07.248Z,10.90
2023-03-30T00:28:35.865Z,11.10
2023-03-30T00:31:05.208Z,14.20
2023-03-30T00:33:44.861Z,12.90
2023-03-30T00:36:17.035Z,14.90
2023-03-30T00:38:46.167Z,12.50
2023-03-30T00:41:14.983Z,16.00
2023-03-30T00:44:02.322Z,19.50
2023-03-30T00:46:31.579Z,16.20
2023-03-30T00:49:05.094Z,17.00
2023-03-30T00:51:35.524Z,14.20
2023-03-30T00:54:10.626Z,15.70
2023-03-30T00:56:40.410Z,14.10
2023-03-30T00:59:08.918Z,13.30
2023-03-30T01:01:37.365Z,13.40
2023-03-30T01:04:08.404Z,11.80
2023-03-30T01:06:37.593Z,15.30
2023-03-30T01:09:06.016Z,14.30
2023-03-30T01:11:34.438Z,18.80
2023-03-30T01:14:06.803Z,17.00
2023-03-30T01:16:53.275Z,24.50
2023-03-30T01:19:39.814Z,11.80
2023-03-30T01:22:44.593Z,14.50
2023-03-30T01:25:50.999Z,15.90
2023-03-30T01:28:58.549Z,12.70
2023-03-30T01:32:09.846Z,14.00
2023-03-30T01:34:49.350Z,13.40
2023-03-30T01:37:37.019Z,18.40
2023-03-30T01:40:10.852Z,12.60
2023-03-30T01:42:42.985Z,10.90
2023-03-30T01:45:40.524Z,15.90
2023-03-30T01:48:15.001Z,13.60
2023-03-30T01:51:03.651Z,14.10
2023-03-30T01:53:52.561Z,15.60
2023-03-30T01:56:27.543Z,12.60
2023-03-30T01:59:11.274Z,12.50
2023-03-30T02:01:42.625Z,14.50
2023-03-30T02:04:12.731Z,14.60
2023-03-30T02:06:47.862Z,13.50
2023-03-30T02:09:20.394Z,12.00
2023-03-30T02:11:52.004Z,15.80
2023-03-30T02:14:27.364Z,12.10
2023-03-30T02:17:02.244Z,12.50
2023-03-30T02:19:30.686Z,12.60
2023-03-30T02:21:58.774Z,11.60
2023-03-30T02:24:30.923Z,11.60
2023-03-30T02:27:01.644Z,12.10
2023-03-30T02:29:32.555Z,15.50
2023-03-30T02:32:01.606Z,13.90
2023-03-30T02:35:04.055Z,13.50
2023-03-30T02:37:56.866Z,14.50
2023-03-30T02:41:04.328Z,14.10
2023-03-30T02:44:11.829Z,13.10
2023-03-30T02:47:16.441Z,9.20
2023-03-30T02:49:59.633Z,14.90
2023-03-30T02:52:42.915Z,12.60
2023-03-30T02:55:26.841Z,10.90
2023-03-30T02:58:14.770Z,11.50
2023-03-30T03:00:42.918Z,9.70
2023-03-30T03:03:33.798Z,9.30
2023-03-30T03:06:04.672Z,8.80
2023-03-30T03:08:36.974Z,9.40
2023-03-30T03:11:05.748Z,15.20
2023-03-30T03:13:36.825Z,12.00
2023-03-30T03:16:07.938Z,14.20
2023-03-30T03:18:36.126Z,15.30
2023-03-30T03:21:05.235Z,8.40
2023-03-30T03:23:35.036Z,9.20
2023-03-30T03:26:04.344Z,10.60
2023-03-30T03:28:33.927Z,11.20
2023-03-30T03:31:03.187Z,8.60
2023-03-30T03:33:32.290Z,7.90
2023-03-30T03:36:01.681Z,8.20
2023-03-30T03:38:30.922Z,8.10
2023-03-30T03:40:59.673Z,8.00
2023-03-30T03:43:27.748Z,8.90
2023-03-30T03:45:56.317Z,9.30
2023-03-30T03:48:25.273Z,8.20
2023-03-30T03:50:58.688Z,9.10
2023-03-30T03:53:28.408Z,8.50
2023-03-30T03:55:56.867Z,8.80
2023-03-30T03:58:26.289Z,10.80
2023-03-30T04:01:02.071Z,13.00
2023-03-30T04:03:31.016Z,6.20
2023-03-30T04:06:00.920Z,18.30
2023-03-30T04:08:30.019Z,13.80
2023-03-30T04:11:06.504Z,9.40
2023-03-30T04:13:35.701Z,17.70
2023-03-30T04:16:04.429Z,14.70
2023-03-30T04:18:33.592Z,8.10
2023-03-30T04:21:05.318Z,7.80
2023-03-30T04:23:35.676Z,13.30
2023-03-30T04:26:06.425Z,7.90
2023-03-30T04:28:36.064Z,8.40
2023-03-30T04:31:07.551Z,7.40
2023-03-30T04:33:42.467Z,12.60
2023-03-30T04:36:11.637Z,5.60
2023-03-30T04:38:40.983Z,13.60
2023-03-30T04:41:09.152Z,8.30
2023-03-30T04:43:37.348Z,11.20
2023-03-30T04:46:06.038Z,8.80
2023-03-30T04:48:35.194Z,10.50
2023-03-30T04:51:03.549Z,16.00
2023-03-30T04:53:32.023Z,9.10
2023-03-30T04:56:00.750Z,6.90
2023-03-30T04:58:29.416Z,9.00
2023-03-30T05:00:57.729Z,11.90
2023-03-30T05:03:26.091Z,6.80
2023-03-30T05:05:55.663Z,5.20
2023-03-30T05:08:24.033Z,8.10
2023-03-30T05:10:52.264Z,8.40
2023-03-30T05:13:20.536Z,4.00
2023-03-30T05:15:57.651Z,7.80
2023-03-30T05:18:26.194Z,7.40
2023-03-30T05:20:57.885Z,4.90
2023-03-30T05:23:26.682Z,6.50
2023-03-30T05:25:54.842Z,5.70
2023-03-30T05:28:23.334Z,7.30
2023-03-30T05:30:55.431Z,8.40
2023-03-30T05:33:23.777Z,4.40
2023-03-30T05:35:52.129Z,7.00
2023-03-30T05:38:20.307Z,7.70
2023-03-30T05:40:53.445Z,7.90
2023-03-30T05:43:24.411Z,6.10
2023-03-30T05:45:52.612Z,6.10
2023-03-30T05:48:21.457Z,5.60
2023-03-30T05:50:49.648Z,6.70
2023-03-30T05:53:18.570Z,6.70
2023-03-30T05:55:47.920Z,7.10
2023-03-30T05:58:17.356Z,10.60
2023-03-30T06:00:45.724Z,4.70
2023-03-30T06:03:13.895Z,6.90
2023-03-30T06:05:42.144Z,11.00
2023-03-30T06:08:11.698Z,8.20
2023-03-30T06:10:39.984Z,10.30
2023-03-30T06:13:08.386Z,7.00
2023-03-30T06:15:36.553Z,8.20
2023-03-30T06:18:05.034Z,10.00
2023-03-30T06:20:33.177Z,5.50
2023-03-30T06:23:01.280Z,6.90
2023-03-30T06:25:29.651Z,8.60
2023-03-30T06:27:57.818Z,6.60
2023-03-30T06:30:26.129Z,9.10
2023-03-30T06:32:54.710Z,6.60
2023-03-30T06:35:22.998Z,9.40
2023-03-30T06:37:51.051Z,5.80
2023-03-30T06:40:19.345Z,11.80
2023-03-30T06:42:49.059Z,7.60
2023-03-30T06:45:17.241Z,6.90
2023-03-30T06:47:45.503Z,9.20
2023-03-30T06:50:13.726Z,13.80
2023-03-30T06:52:41.942Z,5.80
2023-03-30T06:55:10.268Z,9.50
2023-03-30T06:57:38.756Z,11.90
2023-03-30T07:00:08.666Z,6.90
2023-03-30T07:02:37.396Z,17.60
2023-03-30T07:05:06.129Z,6.90
2023-03-30T07:07:35.029Z,13.80
2023-03-30T07:10:05.159Z,7.90
2023-03-30T07:12:33.703Z,7.00
2023-03-30T07:15:03.971Z,12.80
2023-03-30T07:17:34.672Z,13.60
2023-03-30T07:20:04.890Z,8.90
2023-03-30T07:22:33.081Z,11.10
2023-03-30T07:25:01.445Z,11.20
2023-03-30T07:27:29.549Z,10.50
2023-03-30T07:30:04.582Z,7.60
2023-03-30T07:32:39.200Z,11.70
2023-03-30T07:35:07.651Z,10.60
2023-03-30T07:37:35.797Z,9.70
2023-03-30T07:40:04.434Z,12.40
2023-03-30T07:42:32.672Z,9.20
2023-03-30T07:45:00.797Z,18.80
2023-03-30T07:47:29.496Z,14.80
2023-03-30T07:49:57.791Z,10.60
2023-03-30T07:52:26.195Z,13.40
2023-03-30T07:54:54.983Z,17.40
2023-03-30T07:57:23.509Z,16.60
2023-03-30T07:59:52.000Z,12.00
2023-03-30T08:02:20.343Z,21.70
2023-03-30T08:04:48.886Z,12.30
2023-03-30T08:07:17.209Z,8.10
2023-03-30T08:09:45.860Z,11.30
2023-03-30T08:12:14.133Z,10.50
2023-03-30T08:14:42.192Z,10.00
2023-03-30T08:17:10.878Z,8.50
2023-03-30T08:19:39.388Z,14.80
2023-03-30T08:22:07.746Z,15.20
2023-03-30T08:24:38.011Z,10.70
2023-03-30T08:27:06.356Z,12.30
2023-03-30T08:29:34.726Z,14.30
2023-03-30T08:32:02.984Z,10.30
2023-03-30T08:34:31.312Z,12.80
2023-03-30T08:36:59.556Z,15.10
2023-03-30T08:39:30.742Z,12.20
2023-03-30T08:42:21.245Z,12.80
2023-03-30T08:44:55.707Z,8.50
2023-03-30T08:47:35.037Z,9.20
2023-03-30T08:50:11.710Z,15.30
2023-03-30T08:52:40.714Z,16.10
2023-03-30T08:55:35.657Z,11.80
2023-03-30T08:58:16.957Z,16.10
2023-03-30T09:00:56.885Z,14.80
2023-03-30T09:03:42.804Z,9.40
2023-03-30T09:06:44.555Z,10.80
2023-03-30T09:09:16.550Z,9.00
2023-03-30T09:11:46.332Z,13.60
2023-03-30T09:14:31.262Z,14.90
2023-03-30T09:17:08.979Z,16.70
2023-03-30T09:19:53.843Z,14.10
2023-03-30T09:22:30.129Z,14.00
2023-03-30T09:24:58.826Z,22.70
2023-03-30T09:27:58.579Z,12.30
2023-03-30T09:30:35.011Z,10.10
2023-03-30T09:33:31.186Z,16.90
2023-03-30T09:36:08.496Z,27.60
2023-03-30T09:38:40.081Z,21.40
2023-03-30T09:41:31.519Z,12.90
2023-03-30T09:44:02.180Z,13.80
2023-03-30T09:46:31.053Z,17.00
2023-03-30T09:49:14.397Z,11.80
2023-03-30T09:52:07.585Z,9.20
2023-03-30T09:54:41.711Z,12.00
2023-03-30T09:57:32.437Z,8.00
2023-03-30T10:00:22.868Z,6.60
2023-03-30T10:02:59.735Z,5.30
2023-03-30T10:05:29.760Z,10.20
2023-03-30T10:08:06.027Z,12.10
2023-03-30T10:10:35.475Z,11.40
2023-03-30T10:13:09.447Z,9.20
2023-03-30T10:15:43.570Z,7.30
2023-03-30T10:18:27.417Z,11.00
2023-03-30T10:21:05.097Z,10.10
2023-03-30T10:23:40.711Z,12.20
2023-03-30T10:26:19.233Z,8.90
2023-03-30T10:29:02.296Z,11.00
2023-03-30T10:31:34.909Z,5.00
2023-03-30T10:34:05.757Z,15.30
2023-03-30T10:36:40.845Z,14.80
2023-03-30T10:39:18.089Z,9.70
2023-03-30T10:41:47.952Z,11.90
2023-03-30T10:44:31.957Z,11.00
2023-03-30T10:47:21.858Z,13.30
2023-03-30T10:50:18.568Z,17.60
2023-03-30T10:53:17.696Z,16.20
2023-03-30T10:56:04.246Z,14.50
2023-03-30T10:58:52.438Z,12.10
2023-03-30T11:01:20.807Z,10.90
2023-03-30T11:03:56.918Z,17.60
2023-03-30T11:06:31.562Z,11.90
2023-03-30T11:09:04.130Z,13.20
2023-03-30T11:11:41.088Z,13.00
2023-03-30T11:14:25.854Z,16.10
2023-03-30T11:17:08.163Z,8.70
2023-03-30T11:19:52.835Z,10.40
2023-03-30T11:22:43.696Z,10.70
2023-03-30T11:25:30.769Z,11.60
2023-03-30T11:28:02.248Z,14.10
2023-03-30T11:30:34.038Z,12.30
2023-03-30T11:33:36.365Z,10.20
2023-03-30T11:36:24.590Z,22.80
2023-03-30T11:39:00.994Z,11.10
2023-03-30T11:41:48.478Z,11.90
2023-03-30T11:44:18.079Z,14.20
2023-03-30T11:47:08.944Z,18.20
2023-03-30T11:50:14.202Z,16.80
2023-03-30T11:53:11.622Z,11.80
2023-03-30T11:55:49.903Z,15.30
2023-03-30T11:58:23.847Z,18.00
2023-03-30T12:01:10.703Z,22.70
2023-03-30T12:03:51.339Z,18.10
2023-03-30T12:06:31.977Z,13.40
2023-03-30T12:09:34.608Z,18.10
2023-03-30T12:12:11.480Z,9.70
2023-03-30T12:14:54.938Z,27.00
2023-03-30T12:17:33.393Z,15.70
2023-03-30T12:20:11.314Z,14.10
2023-03-30T12:23:13.913Z,22.40
2023-03-30T12:25:42.438Z,14.80
2023-03-30T12:28:17.459Z,14.70
2023-03-30T12:30:58.303Z,18.10
2023-03-30T12:33:28.500Z,18.90
2023-03-30T12:35:59.516Z,15.30
2023-03-30T12:38:37.879Z,16.80
2023-03-30T12:41:11.406Z,17.70
2023-03-30T12:44:15.597Z,16.90
2023-03-30T12:47:13.380Z,19.60
2023-03-30T12:49:47.310Z,10.10
2023-03-30T12:52:34.758Z,12.00
2023-03-30T12:55:17.007Z,15.30
2023-03-30T12:58:24.462Z,15.40
2023-03-30T13:01:14.663Z,8.70
2023-03-30T13:03:51.999Z,14.00
2023-03-30T13:06:28.813Z,15.30
2023-03-30T13:11:50.108Z,16.80
2023-03-30T13:14:57.909Z,25.50
2023-03-30T13:17:26.334Z,12.30
2023-03-30T13:20:26.032Z,17.70
2023-03-30T13:23:01.792Z,9.80
2023-03-30T13:25:44.305Z,11.40
2023-03-30T13:28:44.802Z,16.70
2023-03-30T13:31:47.698Z,13.00
2023-03-30T13:34:31.672Z,13.80
2023-03-30T13:37:18.774Z,11.90
2023-03-30T13:40:07.252Z,15.60
2023-03-30T13:42:47.672Z,12.90
2023-03-30T13:45:27.167Z,16.80
2023-03-30T13:48:22.616Z,12.90
2023-03-30T13:51:00.780Z,17.50
2023-03-30T13:53:38.186Z,16.20
2023-03-30T13:56:09.590Z,15.80
2023-03-30T13:58:40.290Z,14.60
2023-03-30T14:01:12.199Z,15.10
2023-03-30T14:03:48.806Z,17.10
2023-03-30T14:06:22.765Z,14.40
2023-03-30T14:09:07.348Z,13.30
2023-03-30T14:11:41.557Z,13.30
2023-03-30T14:14:21.291Z,18.60
2023-03-30T14:16:51.918Z,11.00
2023-03-30T14:19:33.206Z,15.90
2023-03-30T14:22:12.692Z,16.30
2023-03-30T14:25:00.238Z,15.80
2023-03-30T14:27:39.393Z,18.10
2023-03-30T14:30:29.725Z,16.30
2023-03-30T14:33:11.631Z,16.30
2023-03-30T14:35:52.147Z,12.10
2023-03-30T14:38:33.380Z,18.30
2023-03-30T14:41:01.925Z,12.20
2023-03-30T14:43:31.762Z,15.60
2023-03-30T14:46:05.229Z,20.10
2023-03-30T14:48:37.945Z,15.10
2023-03-30T14:51:36.278Z,17.30
2023-03-30T14:54:06.584Z,18.30
2023-03-30T14:56:35.497Z,20.00
2023-03-30T14:59:03.944Z,22.70
2023-03-30T15:01:34.294Z,18.80
2023-03-30T15:04:13.839Z,25.40
2023-03-30T15:06:43.137Z,22.50
2023-03-30T15:09:23.471Z,26.00
2023-03-30T15:12:02.058Z,20.00
2023-03-30T15:14:40.887Z,21.70
2023-03-30T15:17:14.880Z,23.70
2023-03-30T15:19:43.686Z,20.30
2023-03-30T15:22:32.084Z,22.80
2023-03-30T15:25:05.706Z,18.40
2023-03-30T15:27:37.272Z,18.70
2023-03-30T15:30:06.609Z,21.00
2023-03-30T15:32:39.432Z,16.90
2023-03-30T15:35:23.802Z,22.80
2023-03-30T15:37:53.817Z,21.80
2023-03-30T15:40:38.866Z,20.00
2023-03-30T15:43:18.927Z,20.00
2023-03-30T15:45:51.325Z,15.00
2023-03-30T15:48:23.893Z,20.90
2023-03-30T15:51:12.647Z,22.50
2023-03-30T15:53:47.028Z,19.00
2023-03-30T15:56:23.719Z,22.20
2023-03-30T15:58:52.266Z,17.60
2023-03-30T16:01:20.767Z,27.00
2023-03-30T16:04:01.274Z,16.50
2023-03-30T16:06:29.344Z,23.00
2023-03-30T16:08:57.515Z,27.60
2023-03-30T16:11:26.224Z,16.30
2023-03-30T16:13:54.309Z,19.50
2023-03-30T16:16:22.738Z,20.00
2023-03-30T16:18:51.191Z,16.70
2023-03-30T16:21:19.352Z,22.70
2023-03-30T16:23:47.790Z,20.50
2023-03-30T16:26:16.285Z,22.70
2023-03-30T16:28:45.133Z,19.10
2023-03-30T16:31:22.987Z,19.40
2023-03-30T16:33:52.687Z,20.00
2023-03-30T16:36:22.753Z,17.30
2023-03-30T16:38:50.996Z,20.10
2023-03-30T16:41:21.977Z,16.00
2023-03-30T16:43:50.267Z,21.50
2023-03-30T16:46:20.723Z,14.50
2023-03-30T16:48:48.978Z,19.60
2023-03-30T16:51:17.621Z,19.20
2023-03-30T16:53:46.017Z,13.50
2023-03-30T16:56:17.693Z,20.80
2023-03-30T16:58:46.801Z,17.70
2023-03-30T17:01:15.665Z,16.00
2023-03-30T17:03:44.671Z,21.10
2023-03-30T17:06:13.370Z,21.20
2023-03-30T17:08:43.024Z,22.90
2023-03-30T17:11:11.751Z,20.00
2023-03-30T17:13:39.964Z,24.50
2023-03-30T17:16:11.449Z,17.40
2023-03-30T17:18:39.735Z,19.80
2023-03-30T17:21:08.295Z,21.40
2023-03-30T17:23:36.983Z,17.10
2023-03-30T17:26:05.424Z,14.50
2023-03-30T17:28:35.124Z,17.90
2023-03-30T17:31:07.765Z,15.60
2023-03-30T17:33:37.438Z,23.00
2023-03-30T17:36:18.636Z,13.10
2023-03-30T17:38:47.632Z,22.70
2023-03-30T17:41:18.500Z,18.00
2023-03-30T17:43:48.417Z,23.00
2023-03-30T17:46:19.701Z,25.20
2023-03-30T17:48:48.763Z,27.70
2023-03-30T17:51:16.945Z,24.90
2023-03-30T17:53:45.772Z,18.90
2023-03-30T17:56:14.091Z,22.00
2023-03-30T17:58:42.272Z,20.70
2023-03-30T18:01:13.220Z,23.10
2023-03-30T18:03:41.450Z,25.20
2023-03-30T18:06:12.169Z,15.40
2023-03-30T18:08:40.764Z,23.90
2023-03-30T18:11:09.223Z,19.10
2023-03-30T18:13:37.719Z,25.70
2023-03-30T18:16:06.282Z,22.40
2023-03-30T18:18:34.627Z,19.20
2023-03-30T18:21:04.520Z,20.40
2023-03-30T18:23:34.936Z,29.80
2023-03-30T18:26:05.593Z,30.50
2023-03-30T18:28:35.727Z,20.40
2023-03-30T18:31:04.300Z,14.80
2023-03-30T18:33:32.873Z,20.90
2023-03-30T18:36:01.739Z,25.70
2023-03-30T18:38:30.197Z,23.60
2023-03-30T18:40:58.534Z,19.20
2023-03-30T18:43:27.386Z,24.10
2023-03-30T18:46:00.845Z,29.00
2023-03-30T18:48:30.157Z,37.10
2023-03-30T18:50:58.466Z,30.40
2023-03-30T18:53:28.308Z,29.20
2023-03-30T18:55:58.664Z,27.30
2023-03-30T18:58:29.858Z,36.70
2023-03-30T19:00:58.216Z,44.80
2023-03-30T19:03:27.591Z,42.10
2023-03-30T19:05:55.996Z,39.00
2023-03-30T19:08:26.311Z,81.50
2023-03-30T19:10:57.408Z,47.70
2023-03-30T19:13:27.041Z,81.90
2023-03-30T19:15:55.388Z,52.60
2023-03-30T19:18:23.483Z,36.40
2023-03-30T19:20:52.456Z,29.30
2023-03-30T19:23:20.664Z,25.70
2023-03-30T19:25:49.289Z,26.30
2023-03-30T19:28:19.262Z,32.90
2023-03-30T19:30:48.870Z,26.80
2023-03-30T19:33:17.570Z,29.00
2023-03-30T19:35:46.480Z,30.00
2023-03-30T19:38:15.845Z,23.60
2023-03-30T19:40:44.010Z,28.40
2023-03-30T19:43:12.224Z,20.60
2023-03-30T19:45:40.427Z,29.80
2023-03-30T19:48:08.743Z,27.30
2023-03-30T19:50:37.257Z,21.30
2023-03-30T19:53:05.471Z,27.30
2023-03-30T19:55:34.369Z,23.10
2023-03-30T19:58:02.679Z,26.90
2023-03-30T20:00:30.920Z,21.00
2023-03-30T20:02:59.058Z,31.00
2023-03-30T20:05:27.443Z,25.40
2023-03-30T20:07:55.608Z,27.50
2023-03-30T20:10:25.785Z,20.00
2023-03-30T20:12:54.489Z,24.00
2023-03-30T20:15:25.008Z,23.00
2023-03-30T20:17:53.456Z,22.70
2023-03-30T20:20:22.679Z,24.40
2023-03-30T20:22:52.082Z,21.90
2023-03-30T20:25:22.270Z,18.30
2023-03-30T20:27:50.895Z,24.50
2023-03-30T20:30:20.189Z,21.60
2023-03-30T20:32:59.681Z,26.00
2023-03-30T20:35:33.015Z,24.50
2023-03-30T20:38:01.782Z,26.10
2023-03-30T20:40:30.672Z,29.80
2023-03-30T20:42:58.904Z,25.50
2023-03-30T20:45:27.294Z,27.10
2023-03-30T20:47:55.738Z,27.70
2023-03-30T20:50:24.223Z,32.10
2023-03-30T20:52:52.918Z,19.80
2023-03-30T20:55:21.068Z,32.90
2023-03-30T20:57:49.265Z,20.50
2023-03-30T21:00:18.551Z,31.10
2023-03-30T21:02:46.753Z,24.40
2023-03-30T21:05:15.127Z,25.00
2023-03-30T21:07:44.523Z,28.80
2023-03-30T21:10:12.880Z,28.00
2023-03-30T21:12:40.963Z,24.60
2023-03-30T21:15:09.677Z,22.50
2023-03-30T21:17:37.804Z,29.40
2023-03-30T21:20:06.652Z,25.40
2023-03-30T21:22:35.545Z,26.60
2023-03-30T21:25:03.824Z,22.30
2023-03-30T21:27:32.091Z,28.60
2023-03-30T21:30:00.258Z,25.40
2023-03-30T21:32:30.118Z,25.10
2023-03-30T21:34:59.869Z,16.50
2023-03-30T21:37:28.214Z,20.90
2023-03-30T21:39:56.493Z,23.30
2023-03-30T21:42:24.638Z,24.50
2023-03-30T21:44:53.601Z,13.60
2023-03-30T21:47:21.658Z,20.20
2023-03-30T21:49:50.984Z,20.40
2023-03-30T21:52:19.194Z,22.90
2023-03-30T21:54:47.486Z,24.50
2023-03-30T21:57:15.732Z,20.60
2023-03-30T21:59:44.216Z,24.20
2023-03-30T22:02:12.512Z,23.80
2023-03-30T22:04:43.743Z,18.50
2023-03-30T22:07:12.953Z,16.00
2023-03-30T22:09:41.291Z,19.60
2023-03-30T22:12:09.396Z,17.40
2023-03-30T22:14:38.061Z,14.60
2023-03-30T22:17:06.758Z,20.80
2023-03-30T22:19:34.883Z,15.00
2023-03-30T22:22:03.188Z,18.90
2023-03-30T22:24:31.466Z,13.80
2023-03-30T22:26:59.666Z,15.60
2023-03-30T22:29:28.028Z,14.50
2023-03-30T22:31:56.315Z,17.00
2023-03-30T22:34:24.778Z,15.60
2023-03-30T22:36:52.924Z,15.20
2023-03-30T22:39:21.092Z,19.30
2023-03-30T22:41:49.362Z,18.10
2023-03-30T22:44:17.993Z,25.30
2023-03-30T22:46:47.280Z,17.40
2023-03-30T22:49:15.477Z,23.30
2023-03-30T22:51:43.767Z,20.00
2023-03-30T22:54:11.865Z,17.40
2023-03-30T22:56:39.921Z,17.10
2023-03-30T22:59:08.111Z,18.50
2023-03-30T23:01:36.763Z,24.50
2023-03-30T23:04:06.642Z,19.50
2023-03-30T23:06:35.056Z,16.10
2023-03-30T23:09:04.477Z,12.90
2023-03-30T23:11:34.349Z,18.50
2023-03-30T23:14:02.723Z,17.50
2023-03-30T23:16:34.610Z,13.40
2023-03-30T23:19:04.445Z,14.40
2023-03-30T23:21:32.631Z,18.10
2023-03-30T23:24:02.527Z,18.40
2023-03-30T23:26:30.914Z,10.00
2023-03-30T23:28:59.037Z,16.10
2023-03-30T23:31:27.301Z,21.00
2023-03-30T23:33:56.737Z,10.30
2023-03-30T23:36:25.269Z,8.10
2023-03-30T23:38:53.463Z,7.40
2023-03-30T23:41:22.229Z,9.00
2023-03-30T23:43:50.428Z,6.40
2023-03-30T23:46:20.132Z,5.80
2023-03-30T23:48:48.780Z,10.60
2023-03-30T23:51:16.937Z,9.60
2023-03-30T23:53:45.138Z,15.60
2023-03-30T23:56:13.508Z,16.40
2023-03-30T23:58:41.846Z,11.90
